createdAt,value
2022-10-05T00:00:22.791Z,15.88
2022-10-05T00:02:54.733Z,15.35
2022-10-05T00:05:31.291Z,15.17
2022-10-05T00:08:14.357Z,16.29
2022-10-05T00:10:42.452Z,15.62
2022-10-05T00:13:19.445Z,16.27
2022-10-05T00:15:47.871Z,15.90
2022-10-05T00:18:22.664Z,15.15
2022-10-05T00:20:57.295Z,15.22
2022-10-05T00:23:27.529Z,16.24
2022-10-05T00:25:54.381Z,15.01
2022-10-05T00:28:25.358Z,15.33
2022-10-05T00:30:59.345Z,16.24
2022-10-05T00:33:30.297Z,15.15
2022-10-05T00:35:58.845Z,15.15
2022-10-05T00:38:28.485Z,15.19
2022-10-05T00:41:18.778Z,15.38
2022-10-05T00:44:17.108Z,16.05
2022-10-05T00:46:54.829Z,15.59
2022-10-05T00:49:39.651Z,16.12
2022-10-05T00:52:19.666Z,15.05
2022-10-05T00:54:54.855Z,15.01
2022-10-05T00:57:33.889Z,15.86
2022-10-05T01:00:06.662Z,15.12
2022-10-05T01:02:44.686Z,15.05
2022-10-05T01:05:24.493Z,15.10
2022-10-05T01:08:00.478Z,15.58
2022-10-05T01:10:33.586Z,16.04
2022-10-05T01:13:12.209Z,15.53
2022-10-05T01:15:46.740Z,15.60
2022-10-05T01:18:21.588Z,15.37
2022-10-05T01:21:01.689Z,15.25
2022-10-05T01:23:59.920Z,15.82
2022-10-05T01:26:44.043Z,15.21
2022-10-05T01:29:24.737Z,15.31
2022-10-05T01:31:59.693Z,14.84
2022-10-05T01:34:36.181Z,15.33
2022-10-05T01:37:10.562Z,15.38
2022-10-05T01:39:46.213Z,14.94
2022-10-05T01:42:21.888Z,14.99
2022-10-05T01:45:01.587Z,15.94
2022-10-05T01:47:36.954Z,15.46
2022-10-05T01:50:09.842Z,15.49
2022-10-05T01:52:43.902Z,15.93
2022-10-05T01:55:22.868Z,15.88
2022-10-05T01:58:09.311Z,15.60
2022-10-05T02:00:56.449Z,15.68
2022-10-05T02:03:35.699Z,15.50
2022-10-05T02:06:12.527Z,15.38
2022-10-05T02:08:49.812Z,15.09
2022-10-05T02:11:24.472Z,15.34
2022-10-05T02:13:57.406Z,14.86
2022-10-05T02:16:42.550Z,15.46
2022-10-05T02:19:22.291Z,14.94
2022-10-05T02:21:55.460Z,15.27
2022-10-05T02:24:25.148Z,15.94
2022-10-05T02:26:55.545Z,15.97
2022-10-05T02:29:29.622Z,15.83
2022-10-05T02:32:18.659Z,15.00
2022-10-05T02:34:46.178Z,14.77
2022-10-05T02:37:29.023Z,15.55
2022-10-05T02:40:12.666Z,14.83
2022-10-05T02:42:50.771Z,15.55
2022-10-05T02:45:30.280Z,16.02
2022-10-05T02:48:11.051Z,14.74
2022-10-05T02:50:49.570Z,15.86
2022-10-05T02:53:25.100Z,15.36
2022-10-05T02:56:02.982Z,15.26
2022-10-05T02:58:41.205Z,15.91
2022-10-05T03:01:17.214Z,14.76
2022-10-05T03:03:51.707Z,14.81
2022-10-05T03:06:24.954Z,16.00
2022-10-05T03:08:59.958Z,15.45
2022-10-05T03:11:41.073Z,15.80
2022-10-05T03:14:14.983Z,15.55
2022-10-05T03:16:52.136Z,14.86
2022-10-05T03:19:52.515Z,15.62
2022-10-05T03:22:29.197Z,15.70
2022-10-05T03:25:19.482Z,14.82
2022-10-05T03:27:54.234Z,15.99
2022-10-05T03:30:24.893Z,15.32
2022-10-05T03:33:00.159Z,15.81
2022-10-05T03:35:41.099Z,14.82
2022-10-05T03:38:17.617Z,15.48
2022-10-05T03:40:49.394Z,15.93
2022-10-05T03:43:35.042Z,14.79
2022-10-05T03:46:13.404Z,15.00
2022-10-05T03:48:47.131Z,15.81
2022-10-05T03:51:23.555Z,15.88
2022-10-05T03:53:57.135Z,14.76
2022-10-05T03:56:34.931Z,15.36
2022-10-05T03:59:14.624Z,15.33
2022-10-05T04:01:48.564Z,15.27
2022-10-05T04:04:23.287Z,14.80
2022-10-05T04:06:58.566Z,14.57
2022-10-05T04:09:29.930Z,14.78
2022-10-05T04:12:04.740Z,15.01
2022-10-05T04:14:41.460Z,15.33
2022-10-05T04:17:12.646Z,15.60
2022-10-05T04:19:46.003Z,15.17
2022-10-05T04:22:18.507Z,15.12
2022-10-05T04:24:49.567Z,15.83
2022-10-05T04:27:23.872Z,14.69
2022-10-05T04:29:57.478Z,15.71
2022-10-05T04:32:36.937Z,14.67
2022-10-05T04:35:40.521Z,14.63
2022-10-05T04:38:25.352Z,14.83
2022-10-05T04:41:06.412Z,15.27
2022-10-05T04:43:40.934Z,15.45
2022-10-05T04:46:18.539Z,14.69
2022-10-05T04:49:14.013Z,14.57
2022-10-05T04:51:51.382Z,15.73
2022-10-05T04:54:32.258Z,14.85
2022-10-05T04:57:06.795Z,14.92
2022-10-05T05:00:09.234Z,14.59
2022-10-05T05:02:52.049Z,15.68
2022-10-05T05:05:30.723Z,15.68
2022-10-05T05:08:10.040Z,15.20
2022-10-05T05:11:04.650Z,15.12
2022-10-05T05:13:58.318Z,14.55
2022-10-05T05:16:33.911Z,15.67
2022-10-05T05:19:35.359Z,14.58
2022-10-05T05:22:13.787Z,14.56
2022-10-05T05:25:18.293Z,14.44
2022-10-05T05:27:54.526Z,14.95
2022-10-05T05:30:23.793Z,15.69
2022-10-05T05:33:19.294Z,14.50
2022-10-05T05:36:06.726Z,15.53
2022-10-05T05:38:41.514Z,15.52
2022-10-05T05:41:20.408Z,15.41
2022-10-05T05:44:16.558Z,15.38
2022-10-05T05:47:09.904Z,15.41
2022-10-05T05:50:06.418Z,15.28
2022-10-05T05:52:45.655Z,15.12
2022-10-05T05:55:20.932Z,14.47
2022-10-05T05:57:54.473Z,14.54
2022-10-05T06:00:35.694Z,15.60
2022-10-05T06:03:08.342Z,15.07
2022-10-05T06:05:40.534Z,15.47
2022-10-05T06:08:16.393Z,15.60
2022-10-05T06:10:49.542Z,14.52
2022-10-05T06:13:21.676Z,15.63
2022-10-05T06:16:20.761Z,14.76
2022-10-05T06:19:20.372Z,15.57
2022-10-05T06:22:11.534Z,15.07
2022-10-05T06:24:44.039Z,14.61
2022-10-05T06:27:26.083Z,14.85
2022-10-05T06:30:14.205Z,14.61
2022-10-05T06:33:16.507Z,14.35
2022-10-05T06:35:58.464Z,14.91
2022-10-05T06:38:53.348Z,15.54
2022-10-05T06:41:30.522Z,15.15
2022-10-05T06:44:00.676Z,14.56
2022-10-05T06:46:34.468Z,14.71
2022-10-05T06:49:17.365Z,14.38
2022-10-05T06:51:53.493Z,14.42
2022-10-05T06:54:57.263Z,14.93
2022-10-05T06:58:02.518Z,15.09
2022-10-05T07:00:42.591Z,15.59
2022-10-05T07:03:36.399Z,14.78
2022-10-05T07:06:14.501Z,15.66
2022-10-05T07:09:02.586Z,15.44
2022-10-05T07:11:58.347Z,15.68
2022-10-05T07:14:49.184Z,15.64
2022-10-05T07:17:36.179Z,14.33
2022-10-05T07:20:15.289Z,14.65
2022-10-05T07:23:02.313Z,14.69
2022-10-05T07:25:35.967Z,15.83
2022-10-05T07:28:10.159Z,14.67
2022-10-05T07:30:49.467Z,15.43
2022-10-05T07:33:31.164Z,14.99
2022-10-05T07:36:11.749Z,14.77
2022-10-05T07:38:47.703Z,15.92
2022-10-05T07:41:19.365Z,14.77
2022-10-05T07:44:02.775Z,16.03
2022-10-05T07:46:40.882Z,16.05
2022-10-05T07:49:15.442Z,15.28
2022-10-05T07:51:52.153Z,14.98
2022-10-05T07:54:24.417Z,15.29
2022-10-05T07:56:58.747Z,15.01
2022-10-05T07:59:36.620Z,14.92
2022-10-05T08:02:40.750Z,14.92
2022-10-05T08:08:39.956Z,16.16
2022-10-05T08:11:33.655Z,16.18
2022-10-05T08:14:22.418Z,15.57
2022-10-05T08:16:58.805Z,15.55
2022-10-05T08:19:34.066Z,15.91
2022-10-05T08:22:07.891Z,16.40
2022-10-05T08:24:43.435Z,15.28
2022-10-05T08:27:27.939Z,16.35
2022-10-05T08:29:59.760Z,16.18
2022-10-05T08:32:32.636Z,15.81
2022-10-05T08:35:15.820Z,16.46
2022-10-05T08:37:45.162Z,15.52
2022-10-05T08:40:48.823Z,16.70
2022-10-05T08:43:35.447Z,15.38
2022-10-05T08:46:36.419Z,16.73
2022-10-05T08:49:28.969Z,16.35
2022-10-05T08:52:24.733Z,15.72
2022-10-05T08:55:22.973Z,16.85
2022-10-05T08:58:26.366Z,16.27
2022-10-05T09:01:11.342Z,16.46
2022-10-05T09:04:19.457Z,17.09
2022-10-05T09:07:27.403Z,15.91
2022-10-05T09:10:30.368Z,17.22
2022-10-05T09:13:37.527Z,16.96
2022-10-05T09:20:12.276Z,16.38
2022-10-05T09:23:27.984Z,16.43
2022-10-05T09:26:12.755Z,17.58
2022-10-05T09:29:03.510Z,16.66
2022-10-05T09:32:04.381Z,16.57
2022-10-05T09:38:31.905Z,17.60
2022-10-05T09:41:53.011Z,16.61
2022-10-05T09:45:27.088Z,16.58
2022-10-05T09:48:56.886Z,17.24
2022-10-05T09:51:58.157Z,17.83
2022-10-05T09:55:11.833Z,17.94
2022-10-05T09:58:23.576Z,17.79
2022-10-05T10:01:35.260Z,16.88
2022-10-05T10:07:57.888Z,16.84
2022-10-05T10:10:51.648Z,17.95
2022-10-05T10:13:53.983Z,17.87
2022-10-05T10:16:51.366Z,17.73
2022-10-05T10:19:38.940Z,17.63
2022-10-05T10:22:43.127Z,17.74
2022-10-05T10:25:55.727Z,17.65
2022-10-05T10:28:50.271Z,17.60
2022-10-05T10:31:45.883Z,17.49
2022-10-05T10:34:48.138Z,17.44
2022-10-05T10:37:37.199Z,17.54
2022-10-05T10:40:21.199Z,17.36
2022-10-05T10:43:09.020Z,17.54
2022-10-05T10:45:50.604Z,17.37
2022-10-05T10:48:31.879Z,17.31
2022-10-05T10:51:12.612Z,17.24
2022-10-05T10:54:07.259Z,17.29
2022-10-05T10:57:07.239Z,17.22
2022-10-05T11:00:05.601Z,17.24
2022-10-05T11:03:03.970Z,17.34
2022-10-05T11:06:03.177Z,17.22
2022-10-05T11:08:56.356Z,17.24
2022-10-05T11:11:38.831Z,17.38
2022-10-05T11:14:41.118Z,17.42
2022-10-05T11:17:30.586Z,17.30
2022-10-05T11:20:25.366Z,17.32
2022-10-05T11:23:00.907Z,17.08
2022-10-05T11:26:01.913Z,17.26
2022-10-05T11:29:01.183Z,17.17
2022-10-05T11:31:58.857Z,17.19
2022-10-05T11:34:48.818Z,17.28
2022-10-05T11:37:40.276Z,17.20
2022-10-05T11:40:57.799Z,17.11
2022-10-05T11:43:54.836Z,17.14
2022-10-05T11:46:27.809Z,17.14
2022-10-05T11:49:15.702Z,17.18
2022-10-05T11:51:53.261Z,17.14
2022-10-05T11:55:09.439Z,17.19
2022-10-05T11:57:36.704Z,17.23
2022-10-05T12:00:12.803Z,17.23
2022-10-05T12:03:01.075Z,17.19
2022-10-05T12:05:38.156Z,17.23
2022-10-05T12:08:45.919Z,17.23
2022-10-05T12:12:01.908Z,17.22
2022-10-05T12:14:39.328Z,16.82
2022-10-05T12:17:19.467Z,17.28
2022-10-05T12:19:51.412Z,16.29
2022-10-05T12:22:29.340Z,16.81
2022-10-05T12:25:22.798Z,16.81
2022-10-05T12:31:04.794Z,16.16
2022-10-05T12:33:47.727Z,16.18
2022-10-05T12:36:23.028Z,16.88
2022-10-05T12:39:22.360Z,16.10
2022-10-05T12:45:28.958Z,17.40
2022-10-05T12:51:03.990Z,16.67
2022-10-05T12:53:49.164Z,16.69
2022-10-05T12:56:36.002Z,16.95
2022-10-05T12:59:43.930Z,16.97
2022-10-05T13:02:49.173Z,16.47
2022-10-05T13:15:45.173Z,17.36
2022-10-05T13:18:29.946Z,16.97
2022-10-05T13:21:17.618Z,16.74
2022-10-05T13:23:59.615Z,17.18
2022-10-05T13:26:33.104Z,17.59
2022-10-05T13:29:17.525Z,16.69
2022-10-05T13:31:51.508Z,16.97
2022-10-05T13:34:38.862Z,17.65
2022-10-05T13:37:34.762Z,17.58
2022-10-05T13:40:42.072Z,16.84
2022-10-05T13:43:40.738Z,17.27
2022-10-05T13:46:18.645Z,16.98
2022-10-05T13:49:09.998Z,17.93
2022-10-05T13:51:45.489Z,18.02
2022-10-05T13:54:29.245Z,17.26
2022-10-05T13:57:07.686Z,17.99
2022-10-05T13:59:42.973Z,17.79
2022-10-05T14:02:22.458Z,17.27
2022-10-05T14:05:41.728Z,18.05
2022-10-05T14:08:18.963Z,17.41
2022-10-05T14:10:51.417Z,17.59
2022-10-05T14:14:38.158Z,17.46
2022-10-05T14:17:33.398Z,17.51
2022-10-05T14:20:10.467Z,17.73
2022-10-05T14:22:43.721Z,17.58
2022-10-05T14:25:24.116Z,17.83
2022-10-05T14:28:03.657Z,17.30
2022-10-05T14:30:40.316Z,17.59
2022-10-05T14:33:15.420Z,17.82
2022-10-05T14:35:53.373Z,16.97
2022-10-05T14:38:26.877Z,17.76
2022-10-05T14:41:15.606Z,17.38
2022-10-05T14:43:54.354Z,17.54
2022-10-05T14:47:27.144Z,17.71
2022-10-05T15:00:20.628Z,17.34
2022-10-05T15:03:10.793Z,17.68
2022-10-05T15:05:46.182Z,17.64
2022-10-05T15:08:40.527Z,17.57
2022-10-05T15:11:11.343Z,16.96
2022-10-05T15:13:52.980Z,17.49
2022-10-05T15:16:24.939Z,16.61
2022-10-05T15:19:03.017Z,16.82
2022-10-05T15:21:59.499Z,17.68
2022-10-05T15:24:43.767Z,17.01
2022-10-05T15:27:24.136Z,16.67
2022-10-05T15:30:21.912Z,17.42
2022-10-05T15:33:41.980Z,16.72
2022-10-05T15:36:23.240Z,17.21
2022-10-05T15:39:05.388Z,16.51
2022-10-05T15:42:16.499Z,17.69
2022-10-05T15:44:57.213Z,17.20
2022-10-05T15:47:35.690Z,16.95
2022-10-05T15:50:15.602Z,17.69
2022-10-05T15:52:50.960Z,17.70
2022-10-05T15:55:30.100Z,17.57
2022-10-05T15:58:15.437Z,16.52
2022-10-05T16:00:47.271Z,17.49
2022-10-05T16:03:26.077Z,17.23
2022-10-05T16:06:07.675Z,16.47
2022-10-05T16:09:01.093Z,16.50
2022-10-05T16:11:53.224Z,16.59
2022-10-05T16:14:31.367Z,17.17
2022-10-05T16:17:19.151Z,17.12
2022-10-05T16:19:59.029Z,17.06
2022-10-05T16:22:45.979Z,17.09
2022-10-05T16:25:21.152Z,16.44
2022-10-05T16:28:05.549Z,16.62
2022-10-05T16:30:52.528Z,16.82
2022-10-05T16:33:28.897Z,16.77
2022-10-05T16:36:09.308Z,17.58
2022-10-05T16:38:47.188Z,17.40
2022-10-05T16:41:22.779Z,16.81
2022-10-05T16:43:58.389Z,17.01
2022-10-05T16:46:33.451Z,17.05
2022-10-05T16:49:11.430Z,17.35
2022-10-05T16:54:47.890Z,16.71
2022-10-05T16:57:24.514Z,16.84
2022-10-05T17:00:22.285Z,17.47
2022-10-05T17:03:10.370Z,16.85
2022-10-05T17:05:58.453Z,17.39
2022-10-05T17:08:47.691Z,16.82
2022-10-05T17:11:29.809Z,17.42
2022-10-05T17:17:26.956Z,16.29
2022-10-05T17:20:13.236Z,16.33
2022-10-05T17:22:49.662Z,17.04
2022-10-05T17:25:29.215Z,17.09
2022-10-05T17:28:19.935Z,17.44
2022-10-05T17:31:22.632Z,16.40
2022-10-05T17:34:28.482Z,16.34
2022-10-05T17:37:18.325Z,16.76
2022-10-05T17:43:24.300Z,17.46
2022-10-05T17:46:10.373Z,16.45
2022-10-05T17:49:13.422Z,17.40
2022-10-05T17:52:22.669Z,17.44
2022-10-05T17:55:27.998Z,17.40
2022-10-05T17:58:22.037Z,16.59
2022-10-05T18:01:23.937Z,16.89
2022-10-05T18:03:53.459Z,17.38
2022-10-05T18:06:50.789Z,17.33
2022-10-05T18:09:29.839Z,17.44
2022-10-05T18:12:29.055Z,17.41
2022-10-05T18:15:40.100Z,17.23
2022-10-05T18:18:53.426Z,17.45
2022-10-05T18:21:38.268Z,17.45
2022-10-05T18:24:46.618Z,17.44
2022-10-05T18:27:35.321Z,17.42
2022-10-05T18:30:18.127Z,17.03
2022-10-05T18:33:09.700Z,17.43
2022-10-05T18:35:51.888Z,17.43
2022-10-05T18:38:33.119Z,17.36
2022-10-05T18:41:01.892Z,17.23
2022-10-05T18:43:35.416Z,17.24
2022-10-05T18:46:22.561Z,17.29
2022-10-05T18:49:03.910Z,17.23
2022-10-05T18:51:40.966Z,17.00
2022-10-05T18:54:19.193Z,17.10
2022-10-05T18:56:50.035Z,16.98
2022-10-05T18:59:37.886Z,17.17
2022-10-05T19:02:22.844Z,17.01
2022-10-05T19:05:18.977Z,17.03
2022-10-05T19:08:06.836Z,16.94
2022-10-05T19:10:42.581Z,16.84
2022-10-05T19:13:22.485Z,16.09
2022-10-05T19:16:02.379Z,15.88
2022-10-05T19:18:51.630Z,16.08
2022-10-05T19:21:38.325Z,16.02
2022-10-05T19:24:31.259Z,15.97
2022-10-05T19:27:07.812Z,14.98
2022-10-05T19:29:51.530Z,15.46
2022-10-05T19:32:29.516Z,15.39
2022-10-05T19:35:22.203Z,15.71
2022-10-05T19:38:05.687Z,15.63
2022-10-05T19:40:47.602Z,15.41
2022-10-05T19:43:40.205Z,15.34
2022-10-05T19:49:01.201Z,14.42
2022-10-05T19:51:35.876Z,15.27
2022-10-05T19:54:13.977Z,15.05
2022-10-05T19:56:56.667Z,14.94
2022-10-05T19:59:30.977Z,14.34
2022-10-05T20:02:01.059Z,15.35
2022-10-05T20:04:38.190Z,14.33
2022-10-05T20:07:14.518Z,15.53
2022-10-05T20:10:00.870Z,14.41
2022-10-05T20:12:54.108Z,15.53
2022-10-05T20:15:23.563Z,15.47
2022-10-05T20:17:50.500Z,15.16
2022-10-05T20:20:35.855Z,14.38
2022-10-05T20:23:22.680Z,15.47
2022-10-05T20:25:50.083Z,15.43
2022-10-05T20:28:32.205Z,14.19
2022-10-05T20:31:01.340Z,15.11
2022-10-05T20:33:38.639Z,15.02
2022-10-05T20:36:14.537Z,14.93
2022-10-05T20:39:45.101Z,15.47
2022-10-05T20:42:18.561Z,14.27
2022-10-05T20:44:57.119Z,14.20
2022-10-05T20:47:40.483Z,14.37
2022-10-05T20:50:25.652Z,14.23
2022-10-05T20:52:59.723Z,14.12
2022-10-05T20:55:27.564Z,14.46
2022-10-05T20:57:55.780Z,14.27
2022-10-05T21:00:24.265Z,15.24
2022-10-05T21:02:53.921Z,14.18
2022-10-05T21:05:23.046Z,15.27
2022-10-05T21:07:51.295Z,14.90
2022-10-05T21:10:18.092Z,14.58
2022-10-05T21:12:45.247Z,14.75
2022-10-05T21:15:12.372Z,15.29
2022-10-05T21:17:43.657Z,14.20
2022-10-05T21:20:11.748Z,14.27
2022-10-05T21:22:38.853Z,14.88
2022-10-05T21:25:08.947Z,15.18
2022-10-05T21:27:35.682Z,15.21
2022-10-05T21:30:02.774Z,14.43
2022-10-05T21:32:29.975Z,14.03
2022-10-05T21:34:59.699Z,15.20
2022-10-05T21:37:26.590Z,14.54
2022-10-05T21:39:53.343Z,14.02
2022-10-05T21:42:20.105Z,14.66
2022-10-05T21:44:52.486Z,14.70
2022-10-05T21:47:19.360Z,13.91
2022-10-05T21:49:46.296Z,14.53
2022-10-05T21:52:14.946Z,14.52
2022-10-05T21:54:42.044Z,14.96
2022-10-05T21:57:12.121Z,14.59
2022-10-05T21:59:43.169Z,14.47
2022-10-05T22:02:10.205Z,14.64
2022-10-05T22:04:36.933Z,14.65
2022-10-05T22:07:14.496Z,13.79
2022-10-05T22:09:47.803Z,14.70
2022-10-05T22:12:24.470Z,13.94
2022-10-05T22:14:51.269Z,14.11
2022-10-05T22:17:23.100Z,14.53
2022-10-05T22:19:50.501Z,13.86
2022-10-05T22:22:19.374Z,14.50
2022-10-05T22:24:55.335Z,14.47
2022-10-05T22:27:24.282Z,13.83
2022-10-05T22:29:58.936Z,13.30
2022-10-05T22:32:27.774Z,13.31
2022-10-05T22:34:54.822Z,13.83
2022-10-05T22:37:22.680Z,14.33
2022-10-05T22:39:51.874Z,13.83
2022-10-05T22:42:18.904Z,13.12
2022-10-05T22:44:48.424Z,13.46
2022-10-05T22:47:18.192Z,13.56
2022-10-05T22:49:44.982Z,13.62
2022-10-05T22:52:11.894Z,13.81
2022-10-05T22:54:38.684Z,14.11
2022-10-05T22:57:08.260Z,14.22
2022-10-05T22:59:35.186Z,13.47
2022-10-05T23:02:03.903Z,13.67
2022-10-05T23:04:36.853Z,13.58
2022-10-05T23:07:06.286Z,13.86
2022-10-05T23:09:33.368Z,14.05
2022-10-05T23:12:00.646Z,13.61
2022-10-05T23:14:29.985Z,13.86
2022-10-05T23:17:00.825Z,13.02
2022-10-05T23:19:29.365Z,12.95
2022-10-05T23:22:04.324Z,13.86
2022-10-05T23:24:31.903Z,12.70
2022-10-05T23:27:00.384Z,12.56
2022-10-05T23:29:29.337Z,13.78
2022-10-05T23:31:57.968Z,13.56
2022-10-05T23:34:25.273Z,13.76
2022-10-05T23:36:52.207Z,12.55
2022-10-05T23:39:19.222Z,13.20
2022-10-05T23:41:48.800Z,12.96
2022-10-05T23:44:15.685Z,12.72
2022-10-05T23:46:43.890Z,13.33
2022-10-05T23:49:11.192Z,13.48
2022-10-05T23:51:38.036Z,13.52
2022-10-05T23:54:04.994Z,13.63
2022-10-05T23:56:31.842Z,13.67
2022-10-05T23:58:58.671Z,13.63
